createdAt,value
2023-02-08T00:00:02.153Z,6.00
2023-02-08T00:01:02.150Z,6.50
2023-02-08T00:02:02.112Z,6.40
2023-02-08T00:03:02.123Z,6.40
2023-02-08T00:04:02.145Z,5.50
2023-02-08T00:05:02.107Z,5.90
2023-02-08T00:06:02.067Z,5.80
2023-02-08T00:07:02.081Z,5.60
2023-02-08T00:08:02.048Z,5.50
2023-02-08T00:09:02.087Z,6.40
2023-02-08T00:10:02.028Z,5.80
2023-02-08T00:11:02.049Z,6.60
2023-02-08T00:12:02.025Z,6.60
2023-02-08T00:13:02.009Z,6.10
2023-02-08T00:14:01.981Z,6.00
2023-02-08T00:15:02.004Z,5.70
2023-02-08T00:16:02.049Z,5.60
2023-02-08T00:17:01.981Z,5.80
2023-02-08T00:18:01.951Z,5.50
2023-02-08T00:19:01.938Z,5.10
2023-02-08T00:20:01.926Z,5.20
2023-02-08T00:21:01.936Z,5.20
2023-02-08T00:22:01.928Z,5.30
2023-02-08T00:23:01.915Z,5.40
2023-02-08T00:24:01.878Z,5.80
2023-02-08T00:25:01.882Z,4.40
2023-02-08T00:26:01.863Z,5.10
2023-02-08T00:27:01.869Z,4.90
2023-02-08T00:28:04.013Z,5.10
2023-02-08T00:29:01.833Z,5.50
2023-02-08T00:30:01.834Z,4.90
2023-02-08T00:31:01.953Z,4.40
2023-02-08T00:32:01.862Z,4.60
2023-02-08T00:33:01.823Z,5.10
2023-02-08T00:34:01.770Z,4.50
2023-02-08T00:35:01.769Z,5.20
2023-02-08T00:36:01.749Z,5.20
2023-02-08T00:37:01.749Z,6.00
2023-02-08T00:38:01.750Z,5.50
2023-02-08T00:39:01.756Z,5.60
2023-02-08T00:40:01.716Z,6.50
2023-02-08T00:41:01.715Z,6.10
2023-02-08T00:42:01.698Z,5.80
2023-02-08T00:43:01.679Z,5.40
2023-02-08T00:44:01.686Z,5.50
2023-02-08T00:45:01.669Z,6.20
2023-02-08T00:46:01.671Z,5.70
2023-02-08T00:47:01.638Z,6.00
2023-02-08T00:48:01.618Z,5.90
2023-02-08T00:49:01.639Z,7.10
2023-02-08T00:50:01.598Z,5.70
2023-02-08T00:51:01.633Z,5.20
2023-02-08T00:52:01.585Z,6.40
2023-02-08T00:53:01.577Z,5.30
2023-02-08T00:54:01.576Z,5.80
2023-02-08T00:55:01.575Z,6.00
2023-02-08T00:56:01.555Z,5.40
2023-02-08T00:57:01.565Z,5.50
2023-02-08T00:58:01.517Z,5.00
2023-02-08T00:59:01.529Z,5.00
2023-02-08T01:00:01.491Z,5.60
2023-02-08T01:01:01.540Z,6.00
2023-02-08T01:02:01.627Z,4.60
2023-02-08T01:03:01.479Z,4.80
2023-02-08T01:04:01.476Z,5.00
2023-02-08T01:05:01.470Z,5.00
2023-02-08T01:06:01.429Z,5.70
2023-02-08T01:07:01.424Z,5.20
2023-02-08T01:08:01.406Z,4.60
2023-02-08T01:09:01.418Z,4.60
2023-02-08T01:10:01.419Z,5.30
2023-02-08T01:11:01.397Z,5.20
2023-02-08T01:12:01.371Z,5.00
2023-02-08T01:13:01.359Z,5.10
2023-02-08T01:14:01.380Z,5.60
2023-02-08T01:15:01.348Z,5.40
2023-02-08T01:16:01.357Z,4.90
2023-02-08T01:17:01.335Z,5.10
2023-02-08T01:18:01.298Z,4.80
2023-02-08T01:19:01.322Z,5.10
2023-02-08T01:20:01.296Z,4.00
2023-02-08T01:21:01.276Z,4.10
2023-02-08T01:22:01.257Z,4.40
2023-02-08T01:23:01.274Z,3.80
2023-02-08T01:24:01.241Z,4.20
2023-02-08T01:25:01.335Z,3.70
2023-02-08T01:26:01.265Z,4.00
2023-02-08T01:27:01.240Z,3.80
2023-02-08T01:28:01.242Z,4.50
2023-02-08T01:29:01.233Z,3.40
2023-02-08T01:30:01.221Z,3.60
2023-02-08T01:31:01.236Z,3.60
2023-02-08T01:32:01.167Z,3.50
2023-02-08T01:33:01.149Z,3.60
2023-02-08T01:34:01.142Z,3.60
2023-02-08T01:35:01.133Z,3.60
2023-02-08T01:36:01.140Z,3.60
2023-02-08T01:37:01.103Z,3.50
2023-02-08T01:38:01.102Z,3.90
2023-02-08T01:39:01.096Z,3.90
2023-02-08T01:40:01.091Z,4.20
2023-02-08T01:41:01.096Z,3.90
2023-02-08T01:42:01.045Z,3.50
2023-02-08T01:43:01.060Z,3.70
2023-02-08T01:44:01.053Z,4.70
2023-02-08T01:45:01.044Z,4.00
2023-02-08T01:46:01.082Z,4.00
2023-02-08T01:47:00.999Z,4.20
2023-02-08T01:48:00.981Z,4.20
2023-02-08T01:49:00.977Z,4.30
2023-02-08T01:50:01.018Z,4.60
2023-02-08T01:51:00.962Z,4.80
2023-02-08T01:52:00.941Z,4.30
2023-02-08T01:53:00.940Z,4.40
2023-02-08T01:54:00.941Z,4.80
2023-02-08T01:55:00.916Z,4.90
2023-02-08T01:56:00.929Z,4.40
2023-02-08T01:57:00.897Z,4.80
2023-02-08T01:58:00.892Z,4.10
2023-02-08T01:59:00.890Z,4.60
2023-02-08T02:00:00.877Z,4.70
2023-02-08T02:01:00.902Z,5.40
2023-02-08T02:02:04.509Z,4.90
2023-02-08T02:03:00.829Z,5.30
2023-02-08T02:04:00.809Z,4.50
2023-02-08T02:05:00.819Z,4.80
2023-02-08T02:06:00.792Z,4.50
2023-02-08T02:07:00.819Z,5.10
2023-02-08T02:08:00.778Z,4.90
2023-02-08T02:09:00.763Z,4.70
2023-02-08T02:10:00.791Z,5.30
2023-02-08T02:11:00.760Z,5.20
2023-02-08T02:12:00.738Z,5.30
2023-02-08T02:13:00.734Z,5.40
2023-02-08T02:14:00.710Z,5.50
2023-02-08T02:15:00.755Z,5.50
2023-02-08T02:16:00.689Z,5.40
2023-02-08T02:17:00.685Z,5.30
2023-02-08T02:18:00.691Z,6.00
2023-02-08T02:19:00.671Z,5.80
2023-02-08T02:20:00.646Z,5.40
2023-02-08T02:21:00.638Z,5.10
2023-02-08T02:22:00.647Z,6.20
2023-02-08T02:23:00.660Z,5.30
2023-02-08T02:24:00.602Z,5.40
2023-02-08T02:25:00.616Z,5.80
2023-02-08T02:26:00.582Z,5.80
2023-02-08T02:27:00.567Z,5.10
2023-02-08T02:28:00.572Z,5.60
2023-02-08T02:29:00.579Z,5.20
2023-02-08T02:30:00.551Z,5.30
2023-02-08T02:31:00.605Z,6.30
2023-02-08T02:32:00.659Z,5.60
2023-02-08T02:33:00.527Z,6.00
2023-02-08T02:34:00.508Z,5.70
2023-02-08T02:35:00.580Z,5.90
2023-02-08T02:36:00.498Z,5.30
2023-02-08T02:37:00.473Z,5.40
2023-02-08T02:38:00.482Z,5.50
2023-02-08T02:39:00.477Z,6.10
2023-02-08T02:40:00.437Z,6.00
2023-02-08T02:41:00.426Z,6.30
2023-02-08T02:42:00.420Z,5.70
2023-02-08T02:43:00.414Z,6.60
2023-02-08T02:44:00.410Z,6.70
2023-02-08T02:45:00.406Z,6.00
2023-02-08T02:46:00.413Z,5.90
2023-02-08T02:47:00.373Z,6.20
2023-02-08T02:48:00.351Z,6.40
2023-02-08T02:49:00.350Z,6.60
2023-02-08T02:50:00.359Z,5.70
2023-02-08T02:51:00.341Z,5.80
2023-02-08T02:52:00.321Z,6.50
2023-02-08T02:53:00.299Z,5.70
2023-02-08T02:54:00.298Z,6.20
2023-02-08T02:55:00.296Z,6.00
2023-02-08T02:56:00.294Z,6.30
2023-02-08T02:57:00.283Z,6.00
2023-02-08T02:58:00.276Z,5.90
2023-02-08T02:59:00.233Z,5.90
2023-02-08T03:00:00.292Z,6.00
2023-02-08T03:01:00.262Z,5.90
2023-02-08T03:02:00.232Z,6.30
2023-02-08T03:03:00.221Z,5.80
2023-02-08T03:04:00.306Z,5.70
2023-02-08T03:05:00.182Z,6.00
2023-02-08T03:06:00.164Z,6.60
2023-02-08T03:07:00.200Z,6.50
2023-02-08T03:08:00.172Z,6.30
2023-02-08T03:09:00.127Z,5.70
2023-02-08T03:10:00.197Z,6.50
2023-02-08T03:11:00.109Z,6.20
2023-02-08T03:12:00.111Z,5.90
2023-02-08T03:13:00.125Z,6.50
2023-02-08T03:14:00.117Z,7.00
2023-02-08T03:15:00.075Z,6.00
2023-02-08T03:16:00.064Z,7.00
2023-02-08T03:17:00.094Z,5.70
2023-02-08T03:18:00.099Z,6.50
2023-02-08T03:19:00.041Z,6.60
2023-02-08T03:20:00.022Z,5.90
2023-02-08T03:21:00.007Z,6.80
2023-02-08T03:21:59.998Z,6.70
2023-02-08T03:23:00.010Z,6.60
2023-02-08T03:24:00.004Z,6.40
2023-02-08T03:24:59.973Z,6.60
2023-02-08T03:25:59.982Z,6.90
2023-02-08T03:26:59.939Z,6.20
2023-02-08T03:27:59.950Z,6.70
2023-02-08T03:28:59.923Z,6.70
2023-02-08T03:29:59.941Z,6.40
2023-02-08T03:30:59.949Z,7.00
2023-02-08T03:32:00.007Z,6.80
2023-02-08T03:32:59.911Z,6.90
2023-02-08T03:33:59.874Z,6.70
2023-02-08T03:34:59.890Z,6.70
2023-02-08T03:35:59.880Z,6.70
2023-02-08T03:36:59.848Z,6.60
2023-02-08T03:37:59.860Z,6.90
2023-02-08T03:38:59.831Z,6.90
2023-02-08T03:39:59.808Z,6.90
2023-02-08T03:40:59.790Z,7.30
2023-02-08T03:41:59.814Z,6.40
2023-02-08T03:43:02.632Z,6.10
2023-02-08T03:43:59.767Z,7.00
2023-02-08T03:44:59.753Z,6.60
2023-02-08T03:45:59.778Z,6.80
2023-02-08T03:46:59.764Z,7.00
2023-02-08T03:47:59.728Z,7.40
2023-02-08T03:48:59.721Z,6.60
2023-02-08T03:49:59.736Z,6.70
2023-02-08T03:50:59.703Z,7.20
2023-02-08T03:51:59.723Z,7.40
2023-02-08T03:52:59.664Z,7.80
2023-02-08T03:53:59.665Z,7.40
2023-02-08T03:54:59.659Z,7.40
2023-02-08T03:55:59.638Z,6.50
2023-02-08T03:56:59.623Z,7.50
2023-02-08T03:57:59.681Z,7.90
2023-02-08T03:58:59.599Z,6.90
2023-02-08T03:59:59.602Z,7.10
2023-02-08T04:00:59.592Z,7.80
2023-02-08T04:01:59.582Z,6.90
2023-02-08T04:02:59.581Z,6.80
2023-02-08T04:03:59.553Z,6.80
2023-02-08T04:04:59.540Z,7.60
2023-02-08T04:05:59.529Z,7.10
2023-02-08T04:06:59.537Z,7.10
2023-02-08T04:07:59.532Z,8.00
2023-02-08T04:08:59.503Z,6.90
2023-02-08T04:09:59.529Z,7.70
2023-02-08T04:10:59.472Z,7.60
2023-02-08T04:11:59.473Z,7.10
2023-02-08T04:12:59.471Z,7.00
2023-02-08T04:13:59.445Z,7.30
2023-02-08T04:14:59.465Z,7.10
2023-02-08T04:15:59.476Z,7.10
2023-02-08T04:16:59.412Z,7.50
2023-02-08T04:17:59.406Z,7.50
2023-02-08T04:18:59.401Z,6.70
2023-02-08T04:19:59.378Z,7.10
2023-02-08T04:20:59.387Z,6.70
2023-02-08T04:21:59.368Z,7.00
2023-02-08T04:22:59.358Z,7.50
2023-02-08T04:23:59.340Z,8.20
2023-02-08T04:24:59.349Z,7.50
2023-02-08T04:25:59.346Z,7.00
2023-02-08T04:26:59.303Z,6.10
2023-02-08T04:27:59.345Z,6.70
2023-02-08T04:28:59.282Z,7.20
2023-02-08T04:29:59.285Z,6.50
2023-02-08T04:30:59.364Z,7.00
2023-02-08T04:31:59.303Z,8.10
2023-02-08T04:32:59.272Z,8.00
2023-02-08T04:33:59.238Z,6.70
2023-02-08T04:34:59.228Z,7.00
2023-02-08T04:35:59.214Z,7.20
2023-02-08T04:36:59.236Z,6.80
2023-02-08T04:37:59.194Z,7.20
2023-02-08T04:38:59.206Z,7.40
2023-02-08T04:39:59.182Z,6.40
2023-02-08T04:40:59.159Z,6.80
2023-02-08T04:41:59.176Z,7.60
2023-02-08T04:42:59.152Z,7.20
2023-02-08T04:43:59.161Z,7.40
2023-02-08T04:44:59.112Z,7.00
2023-02-08T04:45:59.138Z,6.50
2023-02-08T04:46:59.093Z,8.00
2023-02-08T04:47:59.272Z,6.90
2023-02-08T04:48:59.209Z,7.40
2023-02-08T04:49:59.073Z,7.60
2023-02-08T04:50:59.081Z,6.30
2023-02-08T04:51:59.050Z,7.10
2023-02-08T04:52:59.030Z,7.20
2023-02-08T04:53:59.030Z,7.20
2023-02-08T04:54:59.032Z,7.30
2023-02-08T04:55:59.031Z,7.00
2023-02-08T04:56:58.996Z,7.50
2023-02-08T04:57:58.995Z,8.60
2023-02-08T04:58:58.975Z,7.40
2023-02-08T05:00:00.434Z,6.50
2023-02-08T05:00:58.965Z,7.20
2023-02-08T05:01:59.068Z,7.50
2023-02-08T05:02:58.929Z,7.20
2023-02-08T05:03:59.002Z,7.30
2023-02-08T05:04:58.938Z,7.40
2023-02-08T05:06:06.587Z,7.70
2023-02-08T05:06:58.914Z,7.50
2023-02-08T05:08:06.570Z,7.60
2023-02-08T05:09:06.556Z,6.80
2023-02-08T05:10:06.536Z,7.90
2023-02-08T05:11:06.052Z,8.30
2023-02-08T05:12:06.522Z,8.40
2023-02-08T05:12:58.827Z,8.60
2023-02-08T05:13:58.812Z,8.00
2023-02-08T05:14:58.840Z,7.70
2023-02-08T05:15:58.822Z,8.00
2023-02-08T05:16:58.809Z,7.50
2023-02-08T05:17:58.768Z,7.70
2023-02-08T05:18:58.766Z,7.70
2023-02-08T05:19:58.893Z,7.70
2023-02-08T05:20:58.750Z,7.60
2023-02-08T05:21:58.739Z,7.60
2023-02-08T05:22:58.716Z,7.70
2023-02-08T05:24:01.641Z,7.50
2023-02-08T05:24:58.706Z,6.60
2023-02-08T05:25:58.712Z,8.10
2023-02-08T05:26:58.685Z,7.50
2023-02-08T05:27:58.730Z,8.70
2023-02-08T05:28:58.646Z,8.20
2023-02-08T05:29:59.147Z,7.50
2023-02-08T05:30:58.736Z,8.10
2023-02-08T05:31:58.636Z,7.20
2023-02-08T05:32:58.606Z,7.80
2023-02-08T05:33:58.609Z,7.60
2023-02-08T05:34:58.595Z,8.00
2023-02-08T05:35:58.597Z,7.90
2023-02-08T05:36:58.560Z,7.30
2023-02-08T05:37:58.554Z,7.00
2023-02-08T05:38:58.538Z,8.00
2023-02-08T05:39:58.569Z,7.50
2023-02-08T05:40:58.532Z,7.70
2023-02-08T05:41:58.530Z,6.90
2023-02-08T05:42:58.513Z,7.50
2023-02-08T05:43:58.488Z,8.00
2023-02-08T05:44:58.491Z,7.90
2023-02-08T05:45:58.525Z,7.60
2023-02-08T05:46:58.535Z,8.00
2023-02-08T05:47:58.488Z,8.70
2023-02-08T05:48:58.428Z,8.50
2023-02-08T05:49:58.427Z,8.90
2023-02-08T05:50:58.424Z,7.70
2023-02-08T05:51:58.527Z,9.40
2023-02-08T05:52:58.393Z,8.90
2023-02-08T05:53:58.392Z,9.20
2023-02-08T05:54:58.366Z,9.00
2023-02-08T05:55:58.370Z,10.70
2023-02-08T05:56:58.346Z,10.30
2023-02-08T05:57:58.381Z,10.40
2023-02-08T05:58:58.323Z,10.90
2023-02-08T05:59:58.324Z,12.00
2023-02-08T06:00:58.474Z,9.90
2023-02-08T06:01:58.299Z,12.80
2023-02-08T06:02:58.383Z,12.90
2023-02-08T06:03:58.350Z,11.60
2023-02-08T06:04:58.271Z,11.30
2023-02-08T06:05:58.256Z,13.40
2023-02-08T06:06:58.240Z,12.00
2023-02-08T06:07:58.295Z,12.40
2023-02-08T06:08:58.222Z,12.50
2023-02-08T06:09:58.218Z,13.40
2023-02-08T06:10:58.207Z,11.90
2023-02-08T06:11:58.214Z,12.00
2023-02-08T06:12:58.177Z,12.20
2023-02-08T06:13:58.191Z,13.90
2023-02-08T06:14:58.152Z,12.50
2023-02-08T06:15:58.169Z,13.20
2023-02-08T06:16:58.143Z,11.60
2023-02-08T06:17:58.130Z,13.30
2023-02-08T06:18:58.132Z,12.30
2023-02-08T06:19:58.114Z,12.60
2023-02-08T06:20:58.100Z,14.70
2023-02-08T06:21:58.095Z,17.00
2023-02-08T06:22:58.081Z,14.50
2023-02-08T06:23:58.087Z,16.30
2023-02-08T06:24:58.247Z,14.60
2023-02-08T06:25:58.044Z,13.80
2023-02-08T06:26:58.029Z,14.80
2023-02-08T06:27:58.087Z,14.00
2023-02-08T06:28:58.046Z,15.00
2023-02-08T06:29:58.028Z,14.40
2023-02-08T06:30:58.004Z,14.20
2023-02-08T06:31:58.080Z,16.70
2023-02-08T06:32:57.986Z,20.10
2023-02-08T06:33:57.977Z,18.60
2023-02-08T06:34:57.958Z,17.00
2023-02-08T06:35:57.935Z,17.70
2023-02-08T06:36:57.929Z,14.30
2023-02-08T06:37:57.926Z,14.40
2023-02-08T06:38:57.907Z,14.10
2023-02-08T06:39:57.911Z,12.20
2023-02-08T06:40:57.900Z,13.50
2023-02-08T06:41:57.900Z,12.30
2023-02-08T06:42:57.881Z,12.90
2023-02-08T06:43:57.850Z,12.50
2023-02-08T06:44:57.850Z,12.40
2023-02-08T06:45:57.889Z,12.10
2023-02-08T06:46:57.862Z,11.60
2023-02-08T06:47:57.807Z,13.60
2023-02-08T06:48:57.801Z,17.50
2023-02-08T06:49:58.807Z,15.10
2023-02-08T06:50:57.783Z,13.10
2023-02-08T06:51:57.844Z,12.50
2023-02-08T06:52:57.797Z,13.60
2023-02-08T06:53:57.742Z,13.40
2023-02-08T06:54:57.741Z,13.40
2023-02-08T06:55:57.752Z,13.50
2023-02-08T06:56:57.716Z,14.80
2023-02-08T06:57:57.709Z,12.30
2023-02-08T06:58:57.734Z,14.30
2023-02-08T06:59:57.683Z,13.00
2023-02-08T07:01:00.408Z,13.10
2023-02-08T07:01:59.566Z,25.10
2023-02-08T07:02:57.650Z,20.40
2023-02-08T07:03:57.681Z,20.10
2023-02-08T07:04:57.637Z,15.70
2023-02-08T07:06:04.633Z,13.70
2023-02-08T07:06:58.607Z,12.60
2023-02-08T07:07:57.617Z,13.70
2023-02-08T07:08:57.588Z,13.00
2023-02-08T07:09:57.587Z,14.20
2023-02-08T07:10:57.564Z,13.70
2023-02-08T07:11:57.553Z,13.30
2023-02-08T07:12:57.567Z,13.90
2023-02-08T07:13:57.528Z,14.50
2023-02-08T07:14:57.526Z,13.90
2023-02-08T07:15:57.523Z,13.30
2023-02-08T07:16:57.566Z,12.50
2023-02-08T07:17:57.511Z,13.10
2023-02-08T07:18:57.486Z,12.10
2023-02-08T07:19:57.469Z,14.20
2023-02-08T07:20:57.465Z,12.70
2023-02-08T07:21:57.460Z,12.30
2023-02-08T07:22:57.442Z,13.00
2023-02-08T07:23:57.441Z,13.40
2023-02-08T07:24:57.420Z,13.80
2023-02-08T07:25:57.399Z,12.90
2023-02-08T07:26:57.396Z,17.20
2023-02-08T07:27:57.424Z,14.40
2023-02-08T07:28:57.399Z,14.50
2023-02-08T07:29:57.384Z,17.00
2023-02-08T07:30:57.388Z,15.90
2023-02-08T07:31:57.428Z,13.70
2023-02-08T07:32:57.361Z,14.00
2023-02-08T07:33:57.337Z,16.10
2023-02-08T07:35:04.995Z,15.50
2023-02-08T07:35:57.308Z,15.70
2023-02-08T07:36:57.317Z,14.90
2023-02-08T07:37:57.289Z,14.20
2023-02-08T07:38:57.322Z,13.20
2023-02-08T07:39:57.428Z,14.10
2023-02-08T07:40:57.272Z,14.60
2023-02-08T07:41:57.232Z,14.40
2023-02-08T07:42:57.270Z,16.60
2023-02-08T07:43:57.226Z,14.90
2023-02-08T07:44:57.218Z,13.00
2023-02-08T07:45:57.262Z,14.20
2023-02-08T07:46:57.214Z,14.90
2023-02-08T07:48:04.857Z,16.30
2023-02-08T07:48:57.206Z,18.30
2023-02-08T07:50:04.856Z,15.70
2023-02-08T07:50:57.176Z,15.70
2023-02-08T07:51:57.128Z,14.30
2023-02-08T07:52:57.137Z,13.80
2023-02-08T07:53:57.126Z,14.40
2023-02-08T07:54:57.148Z,14.90
2023-02-08T07:55:57.119Z,14.10
2023-02-08T07:56:57.100Z,14.60
2023-02-08T07:57:57.064Z,13.80
2023-02-08T07:58:57.085Z,14.20
2023-02-08T07:59:57.065Z,12.90
2023-02-08T08:00:57.120Z,14.10
2023-02-08T08:01:57.103Z,13.50
2023-02-08T08:02:57.027Z,13.20
2023-02-08T08:03:57.121Z,14.10
2023-02-08T08:04:57.010Z,14.00
2023-02-08T08:05:56.989Z,14.70
2023-02-08T08:06:56.987Z,14.00
2023-02-08T08:07:56.957Z,14.50
2023-02-08T08:08:56.981Z,14.40
2023-02-08T08:09:56.947Z,14.80
2023-02-08T08:10:56.944Z,15.30
2023-02-08T08:11:56.934Z,14.70
2023-02-08T08:12:57.057Z,15.20
2023-02-08T08:13:56.894Z,15.80
2023-02-08T08:14:56.914Z,15.20
2023-02-08T08:15:56.887Z,13.40
2023-02-08T08:16:56.866Z,14.40
2023-02-08T08:17:56.878Z,15.40
2023-02-08T08:18:56.872Z,15.40
2023-02-08T08:19:56.870Z,14.30
2023-02-08T08:20:56.845Z,14.60
2023-02-08T08:21:56.950Z,13.70
2023-02-08T08:22:56.827Z,13.50
2023-02-08T08:23:56.817Z,13.90
2023-02-08T08:24:56.814Z,13.90
2023-02-08T08:25:56.772Z,14.00
2023-02-08T08:26:56.770Z,15.00
2023-02-08T08:27:56.855Z,13.60
2023-02-08T08:28:56.805Z,13.20
2023-02-08T08:29:56.757Z,12.70
2023-02-08T08:30:56.760Z,13.40
2023-02-08T08:31:56.704Z,12.80
2023-02-08T08:32:56.732Z,12.80
2023-02-08T08:33:56.891Z,13.30
2023-02-08T08:34:56.698Z,12.00
2023-02-08T08:35:56.693Z,12.00
2023-02-08T08:36:56.839Z,12.50
2023-02-08T08:37:58.533Z,11.90
2023-02-08T08:38:56.632Z,11.70
2023-02-08T08:39:56.615Z,10.20
2023-02-08T08:40:56.673Z,11.50
2023-02-08T08:41:56.595Z,11.30
2023-02-08T08:42:56.607Z,11.50
2023-02-08T08:43:56.573Z,10.80
2023-02-08T08:44:56.563Z,9.10
2023-02-08T08:45:56.661Z,10.40
2023-02-08T08:46:56.917Z,10.60
2023-02-08T08:47:56.529Z,10.10
2023-02-08T08:48:56.564Z,9.70
2023-02-08T08:49:56.524Z,10.60
2023-02-08T08:50:56.533Z,9.60
2023-02-08T08:51:57.732Z,10.00
2023-02-08T08:53:03.639Z,7.10
2023-02-08T08:53:56.472Z,10.20
2023-02-08T08:54:56.464Z,9.40
2023-02-08T08:55:56.451Z,7.80
2023-02-08T08:56:56.499Z,9.80
2023-02-08T08:57:56.553Z,9.70
2023-02-08T08:58:56.431Z,9.00
2023-02-08T08:59:56.426Z,31.00
2023-02-08T09:00:56.412Z,24.70
2023-02-08T09:01:56.427Z,10.30
2023-02-08T09:02:56.423Z,9.60
2023-02-08T09:03:56.375Z,10.10
2023-02-08T09:04:56.370Z,8.90
2023-02-08T09:05:56.335Z,8.20
2023-02-08T09:06:56.329Z,7.30
2023-02-08T09:07:56.346Z,10.70
2023-02-08T09:08:56.338Z,10.20
2023-02-08T09:09:56.290Z,11.30
2023-02-08T09:10:56.283Z,10.20
2023-02-08T09:11:56.268Z,9.50
2023-02-08T09:12:56.350Z,9.10
2023-02-08T09:13:56.308Z,8.20
2023-02-08T09:14:56.253Z,8.30
2023-02-08T09:15:56.272Z,7.80
2023-02-08T09:16:56.218Z,9.90
2023-02-08T09:17:56.203Z,10.20
2023-02-08T09:18:56.260Z,11.90
2023-02-08T09:19:56.222Z,9.70
2023-02-08T09:20:56.215Z,8.50
2023-02-08T09:21:56.800Z,7.80
2023-02-08T09:22:56.173Z,9.60
2023-02-08T09:23:57.148Z,10.20
2023-02-08T09:24:56.185Z,11.30
2023-02-08T09:26:07.954Z,9.80
2023-02-08T09:26:56.256Z,12.20
2023-02-08T09:27:56.174Z,11.40
2023-02-08T09:28:56.317Z,9.80
2023-02-08T09:29:56.092Z,10.80
2023-02-08T09:30:56.220Z,9.80
2023-02-08T09:31:56.210Z,11.00
2023-02-08T09:32:56.035Z,10.50
2023-02-08T09:33:56.530Z,8.70
2023-02-08T09:34:56.028Z,11.40
2023-02-08T09:35:56.022Z,10.30
2023-02-08T09:36:55.996Z,9.90
2023-02-08T09:37:56.109Z,10.10
2023-02-08T09:38:55.972Z,11.20
2023-02-08T09:39:55.984Z,12.70
2023-02-08T09:40:55.970Z,9.20
2023-02-08T09:41:55.952Z,12.40
2023-02-08T09:42:55.951Z,12.20
2023-02-08T09:43:56.111Z,12.80
2023-02-08T09:44:56.707Z,12.50
2023-02-08T09:46:00.181Z,10.50
2023-02-08T09:46:55.973Z,11.50
2023-02-08T09:47:55.889Z,11.40
2023-02-08T09:48:55.899Z,10.80
2023-02-08T09:49:58.273Z,13.10
2023-02-08T09:50:55.861Z,12.10
2023-02-08T09:51:55.848Z,13.70
2023-02-08T09:52:56.103Z,12.60
2023-02-08T09:53:55.834Z,13.50
2023-02-08T09:54:55.824Z,12.70
2023-02-08T09:55:58.140Z,12.10
2023-02-08T09:56:55.794Z,13.60
2023-02-08T09:57:55.777Z,13.80
2023-02-08T09:58:55.779Z,14.00
2023-02-08T09:59:55.764Z,15.40
2023-02-08T10:00:55.787Z,13.70
2023-02-08T10:01:55.730Z,14.80
2023-02-08T10:02:55.743Z,15.20
2023-02-08T10:03:55.737Z,14.40
2023-02-08T10:04:55.711Z,12.60
2023-02-08T10:05:55.703Z,15.20
2023-02-08T10:06:55.672Z,12.20
2023-02-08T10:07:55.693Z,12.40
2023-02-08T10:08:55.672Z,12.10
2023-02-08T10:09:55.649Z,13.40
2023-02-08T10:10:55.665Z,13.20
2023-02-08T10:11:58.121Z,15.40
2023-02-08T10:12:55.624Z,14.90
2023-02-08T10:13:55.595Z,13.30
2023-02-08T10:14:58.194Z,13.90
2023-02-08T10:15:55.691Z,14.50
2023-02-08T10:16:55.576Z,14.80
2023-02-08T10:17:57.801Z,15.10
2023-02-08T10:18:55.574Z,13.50
2023-02-08T10:19:55.545Z,15.30
2023-02-08T10:20:55.550Z,38.30
2023-02-08T10:21:55.529Z,14.40
2023-02-08T10:22:55.521Z,14.90
2023-02-08T10:23:55.511Z,15.30
2023-02-08T10:24:55.473Z,12.60
2023-02-08T10:25:55.473Z,15.10
2023-02-08T10:26:55.449Z,12.60
2023-02-08T10:27:55.528Z,13.40
2023-02-08T10:28:55.466Z,14.40
2023-02-08T10:29:55.452Z,11.90
2023-02-08T10:30:55.449Z,10.30
2023-02-08T10:31:55.447Z,12.10
2023-02-08T10:32:55.473Z,9.70
2023-02-08T10:33:55.383Z,9.30
2023-02-08T10:34:55.412Z,9.70
2023-02-08T10:35:55.352Z,11.70
2023-02-08T10:36:55.367Z,11.80
2023-02-08T10:37:55.333Z,9.60
2023-02-08T10:38:55.331Z,9.90
2023-02-08T10:39:55.311Z,13.00
2023-02-08T10:40:55.322Z,11.90
2023-02-08T10:41:55.308Z,10.70
2023-02-08T10:42:55.282Z,11.20
2023-02-08T10:43:55.283Z,11.00
2023-02-08T10:44:55.279Z,12.00
2023-02-08T10:45:55.304Z,12.80
2023-02-08T10:46:55.252Z,13.10
2023-02-08T10:47:55.277Z,11.40
2023-02-08T10:48:55.220Z,12.30
2023-02-08T10:49:55.231Z,12.30
2023-02-08T10:50:55.214Z,12.20
2023-02-08T10:51:55.195Z,10.80
2023-02-08T10:52:55.202Z,12.40
2023-02-08T10:53:55.158Z,12.50
2023-02-08T10:54:55.156Z,9.30
2023-02-08T10:55:55.134Z,10.20
2023-02-08T10:56:55.149Z,10.30
2023-02-08T10:57:55.112Z,13.30
2023-02-08T10:58:55.122Z,12.30
2023-02-08T10:59:55.149Z,9.60
2023-02-08T11:00:55.178Z,9.20
2023-02-08T11:01:55.407Z,11.00
2023-02-08T11:02:55.088Z,10.90
2023-02-08T11:03:55.157Z,11.60
2023-02-08T11:04:55.068Z,11.00
2023-02-08T11:05:55.020Z,11.20
2023-02-08T11:06:55.114Z,11.90
2023-02-08T11:07:55.003Z,8.20
2023-02-08T11:08:55.001Z,9.20
2023-02-08T11:09:54.987Z,10.70
2023-02-08T11:10:55.016Z,11.20
2023-02-08T11:11:54.969Z,19.40
2023-02-08T11:12:54.949Z,16.90
2023-02-08T11:13:54.943Z,25.80
2023-02-08T11:14:54.941Z,20.70
2023-02-08T11:15:54.944Z,12.70
2023-02-08T11:16:54.946Z,23.90
2023-02-08T11:17:54.924Z,12.80
2023-02-08T11:18:54.892Z,18.30
2023-02-08T11:19:54.885Z,13.70
2023-02-08T11:20:54.865Z,15.30
2023-02-08T11:21:54.849Z,11.40
2023-02-08T11:22:54.861Z,17.00
2023-02-08T11:23:54.851Z,10.60
2023-02-08T11:24:54.827Z,10.10
2023-02-08T11:25:54.809Z,14.70
2023-02-08T11:26:54.821Z,12.80
2023-02-08T11:27:54.824Z,12.40
2023-02-08T11:28:54.789Z,8.60
2023-02-08T11:29:54.762Z,9.80
2023-02-08T11:30:54.769Z,7.80
2023-02-08T11:31:54.876Z,8.90
2023-02-08T11:32:54.734Z,9.80
2023-02-08T11:33:54.721Z,8.00
2023-02-08T11:34:54.730Z,8.70
2023-02-08T11:35:54.697Z,8.60
2023-02-08T11:36:54.715Z,13.30
2023-02-08T11:37:54.673Z,9.40
2023-02-08T11:38:54.672Z,8.00
2023-02-08T11:39:54.654Z,8.40
2023-02-08T11:40:54.678Z,7.40
2023-02-08T11:41:54.648Z,9.00
2023-02-08T11:42:54.632Z,9.50
2023-02-08T11:43:54.612Z,8.90
2023-02-08T11:44:54.632Z,9.40
2023-02-08T11:45:54.591Z,8.50
2023-02-08T11:46:54.601Z,7.90
2023-02-08T11:47:54.896Z,8.90
2023-02-08T11:48:54.562Z,9.80
2023-02-08T11:49:54.557Z,8.80
2023-02-08T11:50:54.538Z,10.30
2023-02-08T11:51:57.192Z,8.90
2023-02-08T11:52:54.552Z,7.90
2023-02-08T11:53:54.518Z,9.70
2023-02-08T11:54:54.496Z,9.80
2023-02-08T11:55:54.480Z,10.80
2023-02-08T11:56:54.498Z,9.00
2023-02-08T11:57:54.458Z,7.70
2023-02-08T11:58:54.471Z,8.20
2023-02-08T11:59:54.461Z,11.80
2023-02-08T12:00:54.450Z,10.70
2023-02-08T12:01:54.419Z,14.20
2023-02-08T12:02:54.406Z,11.10
2023-02-08T12:03:56.709Z,9.40
2023-02-08T12:04:54.408Z,9.90
2023-02-08T12:05:54.395Z,10.20
2023-02-08T12:06:54.378Z,9.70
2023-02-08T12:07:54.372Z,10.00
2023-02-08T12:08:54.344Z,11.00
2023-02-08T12:09:54.331Z,9.80
2023-02-08T12:10:54.342Z,10.70
2023-02-08T12:11:54.301Z,14.30
2023-02-08T12:12:54.334Z,9.30
2023-02-08T12:13:54.324Z,10.00
2023-02-08T12:14:55.096Z,9.80
2023-02-08T12:15:58.577Z,13.20
2023-02-08T12:16:54.275Z,10.90
2023-02-08T12:17:54.334Z,10.80
2023-02-08T12:18:54.255Z,9.60
2023-02-08T12:19:54.623Z,8.40
2023-02-08T12:20:54.242Z,8.30
2023-02-08T12:21:54.214Z,8.20
2023-02-08T12:22:54.186Z,7.50
2023-02-08T12:23:54.185Z,8.90
2023-02-08T12:24:54.179Z,7.70
2023-02-08T12:25:54.163Z,9.20
2023-02-08T12:26:54.162Z,8.90
2023-02-08T12:27:54.181Z,7.50
2023-02-08T12:28:54.119Z,7.90
2023-02-08T12:29:54.128Z,7.80
2023-02-08T12:30:54.266Z,8.50
2023-02-08T12:31:54.078Z,8.70
2023-02-08T12:32:54.085Z,9.80
2023-02-08T12:33:54.059Z,8.40
2023-02-08T12:34:54.069Z,8.60
2023-02-08T12:36:03.968Z,15.80
2023-02-08T12:36:55.069Z,9.60
2023-02-08T12:37:54.011Z,8.90
2023-02-08T12:38:54.029Z,9.10
2023-02-08T12:39:53.990Z,7.90
2023-02-08T12:40:53.984Z,8.50
2023-02-08T12:41:53.979Z,6.50
2023-02-08T12:42:53.983Z,7.00
2023-02-08T12:43:53.948Z,8.80
2023-02-08T12:44:53.938Z,8.80
2023-02-08T12:45:54.003Z,7.00
2023-02-08T12:46:53.936Z,6.90
2023-02-08T12:48:03.806Z,7.70
2023-02-08T12:48:54.920Z,9.10
2023-02-08T12:49:53.880Z,8.80
2023-02-08T12:50:53.881Z,7.60
2023-02-08T12:51:53.887Z,9.60
2023-02-08T12:52:53.848Z,9.10
2023-02-08T12:53:53.866Z,10.00
2023-02-08T12:54:53.827Z,9.40
2023-02-08T12:55:53.812Z,7.70
2023-02-08T12:57:01.985Z,9.30
2023-02-08T12:57:54.819Z,10.30
2023-02-08T12:58:59.182Z,10.20
2023-02-08T12:59:54.779Z,8.80
2023-02-08T13:00:53.790Z,11.10
2023-02-08T13:01:53.816Z,9.10
2023-02-08T13:02:53.782Z,11.00
2023-02-08T13:03:53.739Z,8.40
2023-02-08T13:04:53.726Z,11.10
2023-02-08T13:06:02.018Z,10.40
2023-02-08T13:06:54.733Z,10.10